»·PEaware :: N360AS A20-A39

N360AS :: A20-A39

FLIGHT INFORMATION

Flight Status: Arrived
Operator: Privately registered:
United States
More flights under this callsign
Pilot: Chuck O. (4337)
Aircraft: Unknown
(LEG2)
More flights by this aircraft type
Origin: A20 Sun Valley
United States
Destination: A39 Ak-Chin Regional
United States
More flights between these airports :: More routes between these airports
Route: BXK TFD
File this flight plan on PilotEdge
Remarks: AZ ABC Leg 29
Altitude:
(Current/Filed)
8,500ft
Speed:
(Current/Filed)
220kts
Departed: 09-Jun-21 11:40 AM
Arrived: 09-Jun-21 12:32 PM
Distance/Time
Traveled:
179nm/0:51
Distance/Time
To Go:
Arrived

Flight Plot

Page will automatically refresh every two minutes.

Flight plan parsing failed; only flown route is shown


Map Options




Map Legend


Flown Route
Filed Route
Departure Airport
Arrival Airport
Navaid (VOR, NDB)
Fix

Horizontal Profiles

Position Reports

Time Latitude Longitude Heading Altitude Ground
Speed
09-Jun-21 11:15 35.001340 -114.563542 0 701ft 0kts
09-Jun-21 11:16 35.001340 -114.563542 89 701ft 0kts
09-Jun-21 11:17 35.001340 -114.563542 89 701ft 0kts
09-Jun-21 11:18 35.001340 -114.563542 89 701ft 0kts
09-Jun-21 11:19 35.001340 -114.563542 89 701ft 0kts
09-Jun-21 11:20 35.001340 -114.563542 89 701ft 0kts
09-Jun-21 11:22 35.001340 -114.563542 89 701ft 0kts
09-Jun-21 11:23 35.001340 -114.563542 89 701ft 0kts
09-Jun-21 11:24 35.001340 -114.563542 89 701ft 0kts
09-Jun-21 11:25 35.001340 -114.563542 89 701ft 0kts
09-Jun-21 11:26 35.001340 -114.563542 89 701ft 0kts
09-Jun-21 11:27 35.001340 -114.563542 89 701ft 0kts
09-Jun-21 11:28 35.001340 -114.563542 89 701ft 0kts
09-Jun-21 11:29 35.001340 -114.563542 89 701ft 0kts
09-Jun-21 11:30 35.001340 -114.563542 89 701ft 0kts
09-Jun-21 11:31 35.001604 -114.563226 5 704ft 4kts
09-Jun-21 11:32 35.001435 -114.563088 213 704ft 2kts
09-Jun-21 11:33 35.000978 -114.564218 267 697ft 0kts
09-Jun-21 11:34 35.002711 -114.564481 358 703ft 11kts
09-Jun-21 11:35 35.005750 -114.564503 359 715ft 9kts
09-Jun-21 11:36 35.009617 -114.564499 0 726ft 16kts
09-Jun-21 11:37 35.010529 -114.564541 324 729ft 0kts
09-Jun-21 11:38 35.010529 -114.564541 324 729ft 0kts
09-Jun-21 11:39 35.010529 -114.564541 324 729ft 0kts
09-Jun-21 11:40 34.998549 -114.565153 181 911ft 124kts
09-Jun-21 11:41 34.967206 -114.540011 112 3086ft 154kts
09-Jun-21 11:42 34.943712 -114.499066 134 5483ft 150kts
09-Jun-21 11:43 34.914292 -114.463403 137 7590ft 153kts
09-Jun-21 11:44 34.880635 -114.424565 138 8631ft 198kts
09-Jun-21 11:45 34.835291 -114.372545 138 8630ft 241kts
09-Jun-21 11:45 34.793476 -114.324629 138 8629ft 254kts
09-Jun-21 11:47 34.732667 -114.255068 138 8629ft 258kts
09-Jun-21 11:48 34.680293 -114.195280 138 8630ft 259kts
09-Jun-21 11:49 34.627660 -114.135289 138 8629ft 260kts
09-Jun-21 11:49 34.583763 -114.085339 138 8629ft 259kts
09-Jun-21 11:50 34.531239 -114.025673 138 8627ft 259kts
09-Jun-21 11:52 34.473862 -113.960606 139 9623ft 236kts
09-Jun-21 11:53 34.423875 -113.904049 139 9628ft 252kts
09-Jun-21 11:53 34.380733 -113.855322 139 9627ft 256kts
09-Jun-21 11:54 34.328539 -113.796446 139 9628ft 258kts
09-Jun-21 11:56 34.267084 -113.727249 139 9627ft 258kts
09-Jun-21 11:56 34.223242 -113.677989 139 9629ft 258kts
09-Jun-21 11:57 34.170721 -113.619058 139 9574ft 260kts
09-Jun-21 11:58 34.117417 -113.559353 138 9520ft 260kts
09-Jun-21 11:59 34.064601 -113.500307 138 9534ft 259kts
09-Jun-21 12:00 34.011696 -113.441264 138 9534ft 259kts
09-Jun-21 12:01 33.958950 -113.382514 138 9534ft 259kts
09-Jun-21 12:02 33.906074 -113.323719 139 9525ft 259kts
09-Jun-21 12:03 33.852950 -113.264755 139 9420ft 264kts
09-Jun-21 12:04 33.797660 -113.203500 138 8824ft 274kts
09-Jun-21 12:05 33.741352 -113.141227 138 8232ft 277kts
09-Jun-21 12:06 33.684471 -113.078438 138 7635ft 278kts
09-Jun-21 12:07 33.627660 -113.015842 138 7040ft 278kts
09-Jun-21 12:08 33.570610 -112.953096 138 6440ft 278kts
09-Jun-21 12:09 33.513600 -112.890534 138 5839ft 278kts
09-Jun-21 12:10 33.457170 -112.828501 135 5481ft 271kts
09-Jun-21 12:11 33.412245 -112.757306 127 5499ft 265kts
09-Jun-21 12:12 33.368755 -112.686493 127 5499ft 264kts
09-Jun-21 12:13 33.325191 -112.615656 128 5499ft 264kts
09-Jun-21 12:14 33.281751 -112.545151 128 5499ft 264kts
09-Jun-21 12:15 33.238108 -112.474467 128 5499ft 264kts
09-Jun-21 12:16 33.194615 -112.404131 128 5499ft 264kts
09-Jun-21 12:17 33.150853 -112.333514 128 5499ft 264kts
09-Jun-21 12:18 33.107109 -112.263072 128 5498ft 264kts
09-Jun-21 12:19 33.063466 -112.192906 128 5499ft 264kts
09-Jun-21 12:20 33.019673 -112.122674 129 5027ft 254kts
09-Jun-21 12:21 32.981431 -112.061400 129 4082ft 188kts
09-Jun-21 12:22 32.953765 -112.017222 129 3186ft 160kts
09-Jun-21 12:23 32.928124 -111.976231 128 2503ft 141kts
09-Jun-21 12:24 32.934417 -111.935860 69 2504ft 141kts
09-Jun-21 12:25 32.947208 -111.891447 68 2488ft 110kts
09-Jun-21 12:26 32.967718 -111.863069 42 2502ft 126kts
09-Jun-21 12:27 32.995469 -111.838560 344 2516ft 129kts
09-Jun-21 12:28 33.021576 -111.865678 271 2513ft 126kts
09-Jun-21 12:29 33.008113 -111.895597 227 1709ft 92kts
09-Jun-21 12:30 32.992111 -111.916795 230 1295ft 54kts
09-Jun-21 12:31 32.990468 -111.918227 128 1292ft 0kts
09-Jun-21 12:32 32.989790 -111.917114 96 1294ft 2kts
09-Jun-21 12:33 32.990228 -111.916830 221 1295ft 0kts
09-Jun-21 12:34 32.990228 -111.916829 221 1295ft 0kts
09-Jun-21 12:35 32.990228 -111.916829 221 1295ft 0kts
09-Jun-21 12:36 32.990228 -111.916829 221 1295ft 0kts
09-Jun-21 12:37 32.990228 -111.916829 221 1295ft 0kts
09-Jun-21 12:38 32.990228 -111.916829 221 1295ft 0kts

Navigation Log

Ident Type
Flight plan parsing failed, navigation log unavailable